sensor_id;sensor_type;location;lat;lon;timestamp;pressure;altitude;pressure_sealevel;temperature;humidity
5753;BME280;2901;42.140;24.760;2022-10-17T00:02:08;100889.88;;;10.14;100.00
5753;BME280;2901;42.140;24.760;2022-10-17T00:04:33;100890.84;;;10.21;99.99
5753;BME280;2901;42.140;24.760;2022-10-17T00:06:59;100889.97;;;10.17;99.78
5753;BME280;2901;42.140;24.760;2022-10-17T00:09:24;100890.59;;;10.07;100.00
5753;BME280;2901;42.140;24.760;2022-10-17T00:11:50;100883.63;;;10.05;100.00
5753;BME280;2901;42.140;24.760;2022-10-17T00:14:15;100894.13;;;10.12;100.00
5753;BME280;2901;42.140;24.760;2022-10-17T00:16:40;100888.81;;;10.05;100.00
5753;BME280;2901;42.140;24.760;2022-10-17T00:19:06;100895.00;;;10.13;100.00
5753;BME280;2901;42.140;24.760;2022-10-17T00:21:32;100894.03;;;10.08;100.00
5753;BME280;2901;42.140;24.760;2022-10-17T00:23:59;100897.50;;;10.07;100.00
5753;BME280;2901;42.140;24.760;2022-10-17T00:26:24;100893.94;;;10.02;99.77
5753;BME280;2901;42.140;24.760;2022-10-17T00:28:51;100892.00;;;9.91;100.00
5753;BME280;2901;42.140;24.760;2022-10-17T00:31:18;100892.72;;;9.83;100.00
5753;BME280;2901;42.140;24.760;2022-10-17T00:33:44;100895.81;;;9.64;100.00
5753;BME280;2901;42.140;24.760;2022-10-17T00:36:24;100890.38;;;9.50;100.00
5753;BME280;2901;42.140;24.760;2022-10-17T00:38:55;100894.41;;;9.37;100.00
5753;BME280;2901;42.140;24.760;2022-10-17T00:41:28;100896.72;;;9.25;100.00
5753;BME280;2901;42.140;24.760;2022-10-17T00:44:00;100887.06;;;9.17;100.00
5753;BME280;2901;42.140;24.760;2022-10-17T00:46:32;100890.38;;;9.10;100.00
5753;BME280;2901;42.140;24.760;2022-10-17T00:49:07;100896.34;;;9.07;100.00
5753;BME280;2901;42.140;24.760;2022-10-17T00:51:39;100905.75;;;9.04;100.00
5753;BME280;2901;42.140;24.760;2022-10-17T00:54:05;100895.44;;;9.05;100.00
5753;BME280;2901;42.140;24.760;2022-10-17T00:56:32;100891.13;;;9.06;100.00
5753;BME280;2901;42.140;24.760;2022-10-17T00:58:58;100893.88;;;9.13;100.00
5753;BME280;2901;42.140;24.760;2022-10-17T01:01:23;100896.59;;;9.18;100.00
5753;BME280;2901;42.140;24.760;2022-10-17T01:03:49;100905.22;;;9.18;100.00
5753;BME280;2901;42.140;24.760;2022-10-17T01:06:15;100900.88;;;9.19;100.00
5753;BME280;2901;42.140;24.760;2022-10-17T01:08:40;100899.16;;;9.18;100.00
5753;BME280;2901;42.140;24.760;2022-10-17T01:22:26;100905.00;;;9.09;100.00
5753;BME280;2901;42.140;24.760;2022-10-17T01:28:04;100914.31;;;9.01;100.00
5753;BME280;2901;42.140;24.760;2022-10-17T01:30:58;100906.41;;;8.95;100.00
5753;BME280;2901;42.140;24.760;2022-10-17T01:36:26;100905.97;;;8.75;100.00
5753;BME280;2901;42.140;24.760;2022-10-17T01:39:01;100901.38;;;8.64;100.00
5753;BME280;2901;42.140;24.760;2022-10-17T01:41:43;100905.03;;;8.73;100.00
5753;BME280;2901;42.140;24.760;2022-10-17T01:46:48;100904.47;;;8.85;100.00
5753;BME280;2901;42.140;24.760;2022-10-17T01:49:16;100907.09;;;8.88;100.00
5753;BME280;2901;42.140;24.760;2022-10-17T01:51:48;100905.34;;;8.87;100.00
5753;BME280;2901;42.140;24.760;2022-10-17T01:54:21;100907.13;;;8.90;100.00
5753;BME280;2901;42.140;24.760;2022-10-17T01:56:51;100918.28;;;8.87;100.00
5753;BME280;2901;42.140;24.760;2022-10-17T01:59:22;100917.31;;;8.82;100.00
5753;BME280;2901;42.140;24.760;2022-10-17T02:01:51;100923.41;;;8.85;100.00
5753;BME280;2901;42.140;24.760;2022-10-17T02:04:18;100908.69;;;8.81;100.00
5753;BME280;2901;42.140;24.760;2022-10-17T02:06:43;100925.19;;;8.88;100.00
5753;BME280;2901;42.140;24.760;2022-10-17T02:09:16;100925.19;;;8.88;100.00
5753;BME280;2901;42.140;24.760;2022-10-17T02:11:49;100920.03;;;8.88;100.00
5753;BME280;2901;42.140;24.760;2022-10-17T02:14:40;100926.84;;;8.86;100.00
5753;BME280;2901;42.140;24.760;2022-10-17T02:17:22;100925.13;;;8.85;100.00
5753;BME280;2901;42.140;24.760;2022-10-17T02:25:34;100933.50;;;8.75;100.00
5753;BME280;2901;42.140;24.760;2022-10-17T02:28:32;100927.19;;;8.64;100.00
5753;BME280;2901;42.140;24.760;2022-10-17T02:31:07;100923.44;;;8.51;100.00
5753;BME280;2901;42.140;24.760;2022-10-17T02:33:40;100947.75;;;8.59;100.00
5753;BME280;2901;42.140;24.760;2022-10-17T02:36:11;100939.81;;;8.52;100.00
5753;BME280;2901;42.140;24.760;2022-10-17T02:38:39;100949.38;;;8.56;100.00
5753;BME280;2901;42.140;24.760;2022-10-17T02:41:09;100955.22;;;8.49;100.00
5753;BME280;2901;42.140;24.760;2022-10-17T02:43:36;100963.84;;;8.49;100.00
5753;BME280;2901;42.140;24.760;2022-10-17T02:46:01;100961.28;;;8.51;100.00
5753;BME280;2901;42.140;24.760;2022-10-17T02:48:35;100971.66;;;8.52;100.00
5753;BME280;2901;42.140;24.760;2022-10-17T02:51:18;100967.31;;;8.51;100.00
5753;BME280;2901;42.140;24.760;2022-10-17T02:59:39;100969.56;;;8.38;100.00
5753;BME280;2901;42.140;24.760;2022-10-17T03:02:07;100973.91;;;8.40;100.00
5753;BME280;2901;42.140;24.760;2022-10-17T03:04:33;100982.81;;;8.51;100.00
5753;BME280;2901;42.140;24.760;2022-10-17T03:06:58;100975.19;;;8.56;100.00
5753;BME280;2901;42.140;24.760;2022-10-17T03:09:24;100979.66;;;8.63;100.00
5753;BME280;2901;42.140;24.760;2022-10-17T03:11:49;100977.94;;;8.62;100.00
5753;BME280;2901;42.140;24.760;2022-10-17T03:14:15;100973.50;;;8.58;100.00
5753;BME280;2901;42.140;24.760;2022-10-17T03:16:40;100970.72;;;8.49;100.00
5753;BME280;2901;42.140;24.760;2022-10-17T03:19:06;100976.69;;;8.48;100.00
5753;BME280;2901;42.140;24.760;2022-10-17T03:21:32;100975.59;;;8.38;100.00
5753;BME280;2901;42.140;24.760;2022-10-17T03:23:57;100981.78;;;8.45;100.00
5753;BME280;2901;42.140;24.760;2022-10-17T03:26:23;100979.00;;;8.37;100.00
5753;BME280;2901;42.140;24.760;2022-10-17T03:28:48;100982.25;;;8.30;100.00
5753;BME280;2901;42.140;24.760;2022-10-17T03:31:15;100981.78;;;8.13;100.00
5753;BME280;2901;42.140;24.760;2022-10-17T03:33:41;100972.97;;;8.05;100.00
5753;BME280;2901;42.140;24.760;2022-10-17T03:36:08;100975.47;;;8.04;100.00
5753;BME280;2901;42.140;24.760;2022-10-17T03:38:34;100968.16;;;7.88;100.00
5753;BME280;2901;42.140;24.760;2022-10-17T03:41:00;100972.16;;;7.76;100.00
5753;BME280;2901;42.140;24.760;2022-10-17T03:43:26;100968.31;;;7.62;100.00
5753;BME280;2901;42.140;24.760;2022-10-17T03:45:51;100973.38;;;7.59;100.00
5753;BME280;2901;42.140;24.760;2022-10-17T03:48:16;100978.34;;;7.53;100.00
5753;BME280;2901;42.140;24.760;2022-10-17T03:50:42;100986.25;;;7.59;100.00
5753;BME280;2901;42.140;24.760;2022-10-17T03:53:07;100987.41;;;7.69;100.00
5753;BME280;2901;42.140;24.760;2022-10-17T03:55:33;100994.56;;;7.79;100.00
5753;BME280;2901;42.140;24.760;2022-10-17T03:57:58;100980.09;;;7.84;100.00
5753;BME280;2901;42.140;24.760;2022-10-17T04:00:24;100983.84;;;7.95;100.00
5753;BME280;2901;42.140;24.760;2022-10-17T04:02:49;100963.06;;;7.91;100.00
5753;BME280;2901;42.140;24.760;2022-10-17T04:05:15;100982.16;;;7.96;100.00
5753;BME280;2901;42.140;24.760;2022-10-17T04:07:40;100976.75;;;7.87;100.00
5753;BME280;2901;42.140;24.760;2022-10-17T04:10:06;100970.47;;;7.78;100.00
5753;BME280;2901;42.140;24.760;2022-10-17T04:12:31;100973.69;;;7.70;100.00
5753;BME280;2901;42.140;24.760;2022-10-17T04:14:57;100977.97;;;7.69;100.00
5753;BME280;2901;42.140;24.760;2022-10-17T04:17:22;100979.53;;;7.64;100.00
5753;BME280;2901;42.140;24.760;2022-10-17T04:19:48;100981.97;;;7.60;100.00
5753;BME280;2901;42.140;24.760;2022-10-17T04:22:14;100986.97;;;7.54;100.00
5753;BME280;2901;42.140;24.760;2022-10-17T04:24:39;100992.94;;;7.53;100.00
5753;BME280;2901;42.140;24.760;2022-10-17T04:27:04;100992.03;;;7.51;100.00
5753;BME280;2901;42.140;24.760;2022-10-17T04:29:30;100994.78;;;7.57;100.00
5753;BME280;2901;42.140;24.760;2022-10-17T04:31:55;101001.88;;;7.64;100.00
5753;BME280;2901;42.140;24.760;2022-10-17T04:34:21;100996.72;;;7.64;100.00
5753;BME280;2901;42.140;24.760;2022-10-17T04:36:46;100997.38;;;7.57;100.00
5753;BME280;2901;42.140;24.760;2022-10-17T04:39:12;101001.66;;;7.58;100.00
5753;BME280;2901;42.140;24.760;2022-10-17T04:41:37;101011.13;;;7.57;100.00
5753;BME280;2901;42.140;24.760;2022-10-17T04:44:02;101017.22;;;7.61;100.00
5753;BME280;2901;42.140;24.760;2022-10-17T04:46:28;101008.72;;;7.63;100.00
5753;BME280;2901;42.140;24.760;2022-10-17T04:48:54;101008.84;;;7.68;100.00
5753;BME280;2901;42.140;24.760;2022-10-17T04:51:19;101009.50;;;7.61;100.00
5753;BME280;2901;42.140;24.760;2022-10-17T04:53:44;101011.00;;;7.54;100.00
5753;BME280;2901;42.140;24.760;2022-10-17T04:56:13;100998.66;;;7.43;100.00
5753;BME280;2901;42.140;24.760;2022-10-17T04:58:39;101010.88;;;7.50;100.00
5753;BME280;2901;42.140;24.760;2022-10-17T05:01:07;101030.91;;;7.58;100.00
5753;BME280;2901;42.140;24.760;2022-10-17T05:03:33;101032.19;;;7.72;100.00
5753;BME280;2901;42.140;24.760;2022-10-17T05:06:03;101046.41;;;7.88;100.00
5753;BME280;2901;42.140;24.760;2022-10-17T05:08:28;101050.75;;;7.91;100.00
5753;BME280;2901;42.140;24.760;2022-10-17T05:10:54;101064.03;;;8.03;100.00
5753;BME280;2901;42.140;24.760;2022-10-17T05:13:19;101053.31;;;8.19;100.00
5753;BME280;2901;42.140;24.760;2022-10-17T05:15:44;101048.19;;;8.20;100.00
5753;BME280;2901;42.140;24.760;2022-10-17T05:18:10;101059.38;;;8.19;100.00
5753;BME280;2901;42.140;24.760;2022-10-17T05:20:35;101061.81;;;8.15;100.00
5753;BME280;2901;42.140;24.760;2022-10-17T05:23:01;101061.16;;;8.23;100.00
5753;BME280;2901;42.140;24.760;2022-10-17T05:25:27;101061.41;;;8.29;100.00
5753;BME280;2901;42.140;24.760;2022-10-17T05:27:52;101071.16;;;8.41;100.00
5753;BME280;2901;42.140;24.760;2022-10-17T05:30:18;101079.22;;;8.52;100.00
5753;BME280;2901;42.140;24.760;2022-10-17T05:32:44;101083.81;;;8.63;100.00
5753;BME280;2901;42.140;24.760;2022-10-17T05:35:09;101092.69;;;8.73;100.00
5753;BME280;2901;42.140;24.760;2022-10-17T05:37:35;101089.34;;;8.77;100.00
5753;BME280;2901;42.140;24.760;2022-10-17T05:40:00;101084.84;;;8.70;100.00
5753;BME280;2901;42.140;24.760;2022-10-17T05:42:26;101094.50;;;8.75;100.00
5753;BME280;2901;42.140;24.760;2022-10-17T05:44:51;101094.66;;;8.81;100.00
5753;BME280;2901;42.140;24.760;2022-10-17T05:47:17;101098.13;;;8.82;100.00
5753;BME280;2901;42.140;24.760;2022-10-17T05:49:42;101101.72;;;8.89;100.00
5753;BME280;2901;42.140;24.760;2022-10-17T05:52:08;101099.31;;;8.96;100.00
5753;BME280;2901;42.140;24.760;2022-10-17T05:54:33;101100.41;;;9.04;100.00
5753;BME280;2901;42.140;24.760;2022-10-17T05:56:59;101105.88;;;9.16;100.00
5753;BME280;2901;42.140;24.760;2022-10-17T05:59:25;101102.47;;;9.19;100.00
5753;BME280;2901;42.140;24.760;2022-10-17T06:01:51;101109.56;;;9.26;100.00
5753;BME280;2901;42.140;24.760;2022-10-17T06:04:17;101120.03;;;9.32;99.98
5753;BME280;2901;42.140;24.760;2022-10-17T06:06:42;101118.44;;;9.37;99.98
5753;BME280;2901;42.140;24.760;2022-10-17T06:09:08;101110.09;;;9.47;100.00
5753;BME280;2901;42.140;24.760;2022-10-17T06:11:34;101112.88;;;9.56;99.08
5753;BME280;2901;42.140;24.760;2022-10-17T06:13:59;101119.94;;;9.63;98.66
5753;BME280;2901;42.140;24.760;2022-10-17T06:16:25;101122.81;;;9.75;98.10
5753;BME280;2901;42.140;24.760;2022-10-17T06:18:50;101133.13;;;9.74;96.98
5753;BME280;2901;42.140;24.760;2022-10-17T06:21:20;101128.91;;;9.79;96.41
5753;BME280;2901;42.140;24.760;2022-10-17T06:23:46;101129.13;;;9.88;95.19
5753;BME280;2901;42.140;24.760;2022-10-17T06:26:12;101135.16;;;9.87;94.62
5753;BME280;2901;42.140;24.760;2022-10-17T06:28:37;101135.16;;;9.87;93.86
5753;BME280;2901;42.140;24.760;2022-10-17T06:31:05;101133.59;;;9.95;93.55
5753;BME280;2901;42.140;24.760;2022-10-17T06:33:31;101150.13;;;10.00;93.51
5753;BME280;2901;42.140;24.760;2022-10-17T06:35:56;101139.91;;;10.06;93.47
5753;BME280;2901;42.140;24.760;2022-10-17T06:38:22;101146.22;;;10.17;93.18
5753;BME280;2901;42.140;24.760;2022-10-17T06:40:48;101141.94;;;10.19;93.20
5753;BME280;2901;42.140;24.760;2022-10-17T06:43:13;101145.66;;;10.30;93.04
5753;BME280;2901;42.140;24.760;2022-10-17T06:45:39;101127.72;;;10.41;92.92
5753;BME280;2901;42.140;24.760;2022-10-17T06:48:05;101135.75;;;10.55;91.89
5753;BME280;2901;42.140;24.760;2022-10-17T06:50:30;101138.63;;;10.67;91.67
5753;BME280;2901;42.140;24.760;2022-10-17T06:52:56;101149.16;;;10.76;91.43
5753;BME280;2901;42.140;24.760;2022-10-17T06:55:21;101141.50;;;10.82;91.47
5753;BME280;2901;42.140;24.760;2022-10-17T06:57:47;101139.88;;;10.88;91.13
5753;BME280;2901;42.140;24.760;2022-10-17T07:00:12;101140.91;;;10.98;90.62
5753;BME280;2901;42.140;24.760;2022-10-17T07:02:38;101144.56;;;11.08;89.76
5753;BME280;2901;42.140;24.760;2022-10-17T07:05:03;101143.88;;;11.18;89.42
5753;BME280;2901;42.140;24.760;2022-10-17T07:07:30;101133.59;;;11.22;88.65
5753;BME280;2901;42.140;24.760;2022-10-17T07:09:56;101149.44;;;11.40;88.86
5753;BME280;2901;42.140;24.760;2022-10-17T07:12:22;101148.75;;;11.49;89.04
5753;BME280;2901;42.140;24.760;2022-10-17T07:14:48;101138.41;;;11.52;87.92
5753;BME280;2901;42.140;24.760;2022-10-17T07:17:17;101154.41;;;11.79;88.51
5753;BME280;2901;42.140;24.760;2022-10-17T07:19:43;101160.53;;;11.83;86.87
5753;BME280;2901;42.140;24.760;2022-10-17T07:22:10;101165.66;;;11.80;87.46
5753;BME280;2901;42.140;24.760;2022-10-17T07:24:36;101170.09;;;11.85;86.85
5753;BME280;2901;42.140;24.760;2022-10-17T07:27:01;101170.28;;;11.98;86.81
5753;BME280;2901;42.140;24.760;2022-10-17T07:29:27;101170.47;;;12.11;85.88
5753;BME280;2901;42.140;24.760;2022-10-17T07:31:52;101174.06;;;12.21;85.27
5753;BME280;2901;42.140;24.760;2022-10-17T07:34:18;101168.13;;;12.29;85.27
5753;BME280;2901;42.140;24.760;2022-10-17T07:36:43;101169.16;;;12.42;84.68
5753;BME280;2901;42.140;24.760;2022-10-17T07:39:09;101165.03;;;12.58;83.90
5753;BME280;2901;42.140;24.760;2022-10-17T07:41:34;101166.19;;;12.82;83.73
5753;BME280;2901;42.140;24.760;2022-10-17T07:44:00;101175.06;;;13.02;82.63
5753;BME280;2901;42.140;24.760;2022-10-17T07:46:25;101172.47;;;13.04;82.88
5753;BME280;2901;42.140;24.760;2022-10-17T07:48:50;101170.03;;;13.16;82.90
5753;BME280;2901;42.140;24.760;2022-10-17T07:51:16;101168.47;;;13.35;81.66
5753;BME280;2901;42.140;24.760;2022-10-17T07:53:42;101159.97;;;13.57;81.33
5753;BME280;2901;42.140;24.760;2022-10-17T07:56:09;101162.69;;;13.68;80.33
5753;BME280;2901;42.140;24.760;2022-10-17T07:58:36;101164.50;;;13.79;79.83
5753;BME280;2901;42.140;24.760;2022-10-17T08:01:07;101164.50;;;13.81;78.89
5753;BME280;2901;42.140;24.760;2022-10-17T08:03:35;101156.63;;;13.70;79.17
5753;BME280;2901;42.140;24.760;2022-10-17T08:06:01;101151.53;;;13.85;78.53
5753;BME280;2901;42.140;24.760;2022-10-17T08:08:27;101153.31;;;13.97;79.25
5753;BME280;2901;42.140;24.760;2022-10-17T08:10:54;101150.75;;;14.03;77.06
5753;BME280;2901;42.140;24.760;2022-10-17T08:13:20;101143.84;;;14.07;77.40
5753;BME280;2901;42.140;24.760;2022-10-17T08:15:46;101137.84;;;14.21;76.87
5753;BME280;2901;42.140;24.760;2022-10-17T08:18:13;101137.94;;;14.33;75.62
5753;BME280;2901;42.140;24.760;2022-10-17T08:20:39;101145.78;;;14.42;75.38
5753;BME280;2901;42.140;24.760;2022-10-17T08:23:04;101140.59;;;14.50;75.34
5753;BME280;2901;42.140;24.760;2022-10-17T08:25:30;101144.13;;;14.52;75.15
5753;BME280;2901;42.140;24.760;2022-10-17T08:27:56;101148.50;;;14.65;75.70
5753;BME280;2901;42.140;24.760;2022-10-17T08:30:22;101145.97;;;14.94;74.15
5753;BME280;2901;42.140;24.760;2022-10-17T08:32:47;101139.91;;;15.13;73.02
5753;BME280;2901;42.140;24.760;2022-10-17T08:35:13;101152.13;;;15.40;72.79
5753;BME280;2901;42.140;24.760;2022-10-17T08:37:39;101144.31;;;15.66;71.56
5753;BME280;2901;42.140;24.760;2022-10-17T08:40:05;101145.13;;;15.84;70.16
5753;BME280;2901;42.140;24.760;2022-10-17T08:47:45;101141.53;;;16.34;68.07
5753;BME280;2901;42.140;24.760;2022-10-17T08:50:17;101145.81;;;16.54;66.62
5753;BME280;2901;42.140;24.760;2022-10-17T08:55:48;101135.97;;;17.03;64.97
5753;BME280;2901;42.140;24.760;2022-10-17T08:58:19;101128.84;;;17.24;65.38
5753;BME280;2901;42.140;24.760;2022-10-17T09:00:51;101126.00;;;17.57;63.64
5753;BME280;2901;42.140;24.760;2022-10-17T09:06:33;101120.53;;;17.80;61.96
5753;BME280;2901;42.140;24.760;2022-10-17T09:17:24;101106.19;;;18.14;56.34
5753;BME280;2901;42.140;24.760;2022-10-17T09:20:16;101106.97;;;18.22;56.30
5753;BME280;2901;42.140;24.760;2022-10-17T09:22:54;101104.13;;;18.40;54.36
5753;BME280;2901;42.140;24.760;2022-10-17T09:25:20;101098.31;;;18.14;54.66
5753;BME280;2901;42.140;24.760;2022-10-17T09:30:33;101101.59;;;18.33;53.07
5753;BME280;2901;42.140;24.760;2022-10-17T09:33:00;101099.72;;;18.41;53.54
5753;BME280;2901;42.140;24.760;2022-10-17T09:35:26;101097.09;;;18.44;52.34
5753;BME280;2901;42.140;24.760;2022-10-17T09:37:53;101097.91;;;18.50;52.23
5753;BME280;2901;42.140;24.760;2022-10-17T09:40:25;101093.50;;;18.52;52.18
5753;BME280;2901;42.140;24.760;2022-10-17T09:42:52;101092.69;;;18.44;52.48
5753;BME280;2901;42.140;24.760;2022-10-17T09:45:20;101090.03;;;18.46;51.64
5753;BME280;2901;42.140;24.760;2022-10-17T09:50:29;101081.66;;;18.87;49.78
5753;BME280;2901;42.140;24.760;2022-10-17T09:52:56;101088.47;;;18.97;50.07
5753;BME280;2901;42.140;24.760;2022-10-17T09:55:38;101086.59;;;19.06;48.84
5753;BME280;2901;42.140;24.760;2022-10-17T09:58:06;101074.84;;;19.27;47.15
5753;BME280;2901;42.140;24.760;2022-10-17T10:00:35;101081.41;;;19.55;45.51
5753;BME280;2901;42.140;24.760;2022-10-17T10:03:21;101073.28;;;19.69;44.04
5753;BME280;2901;42.140;24.760;2022-10-17T10:06:05;101062.69;;;19.72;42.56
5753;BME280;2901;42.140;24.760;2022-10-17T10:08:36;101071.28;;;19.80;41.32
5753;BME280;2901;42.140;24.760;2022-10-17T10:11:12;101063.59;;;19.69;40.10
5753;BME280;2901;42.140;24.760;2022-10-17T10:13:38;101056.19;;;19.90;39.18
5753;BME280;2901;42.140;24.760;2022-10-17T10:16:20;101057.63;;;20.06;39.39
5753;BME280;2901;42.140;24.760;2022-10-17T10:18:47;101052.81;;;19.85;38.24
5753;BME280;2901;42.140;24.760;2022-10-17T10:21:14;101056.03;;;19.99;37.66
5753;BME280;2901;42.140;24.760;2022-10-17T10:23:42;101052.69;;;19.91;37.97
5753;BME280;2901;42.140;24.760;2022-10-17T10:26:22;101051.66;;;19.98;37.04
5753;BME280;2901;42.140;24.760;2022-10-17T10:28:57;101042.97;;;19.94;35.56
5753;BME280;2901;42.140;24.760;2022-10-17T10:31:43;101040.63;;;19.81;35.86
5753;BME280;2901;42.140;24.760;2022-10-17T10:34:28;101046.69;;;19.84;35.23
5753;BME280;2901;42.140;24.760;2022-10-17T10:39:35;101034.09;;;20.00;35.32
5753;BME280;2901;42.140;24.760;2022-10-17T10:42:05;101031.03;;;20.21;35.25
5753;BME280;2901;42.140;24.760;2022-10-17T10:44:31;101031.88;;;20.22;35.43
5753;BME280;2901;42.140;24.760;2022-10-17T10:47:19;101022.88;;;20.33;35.47
5753;BME280;2901;42.140;24.760;2022-10-17T10:49:44;101019.44;;;20.31;35.50
5753;BME280;2901;42.140;24.760;2022-10-17T10:52:18;101023.41;;;20.49;36.07
5753;BME280;2901;42.140;24.760;2022-10-17T10:57:42;101022.50;;;20.51;37.11
5753;BME280;2901;42.140;24.760;2022-10-17T11:00:16;101016.59;;;20.40;37.17
5753;BME280;2901;42.140;24.760;2022-10-17T11:03:00;100996.41;;;20.41;37.90
5753;BME280;2901;42.140;24.760;2022-10-17T11:08:21;100999.94;;;20.77;36.22
5753;BME280;2901;42.140;24.760;2022-10-17T11:11:03;101003.22;;;20.85;36.06
5753;BME280;2901;42.140;24.760;2022-10-17T11:16:33;101004.09;;;20.87;36.70
5753;BME280;2901;42.140;24.760;2022-10-17T11:19:41;100996.72;;;21.01;36.65
5753;BME280;2901;42.140;24.760;2022-10-17T11:22:43;100992.91;;;21.12;37.00
5753;BME280;2901;42.140;24.760;2022-10-17T11:27:47;100991.00;;;21.19;36.13
5753;BME280;2901;42.140;24.760;2022-10-17T11:30:16;100983.75;;;21.27;35.33
5753;BME280;2901;42.140;24.760;2022-10-17T11:32:58;100977.81;;;21.19;36.17
5753;BME280;2901;42.140;24.760;2022-10-17T11:35:40;100978.88;;;21.12;36.44
5753;BME280;2901;42.140;24.760;2022-10-17T11:40:58;100966.38;;;20.85;36.75
5753;BME280;2901;42.140;24.760;2022-10-17T11:43:47;100974.16;;;20.89;37.27
5753;BME280;2901;42.140;24.760;2022-10-17T11:46:15;100964.75;;;20.81;36.87
5753;BME280;2901;42.140;24.760;2022-10-17T11:51:35;100959.56;;;20.78;37.58
5753;BME280;2901;42.140;24.760;2022-10-17T11:54:14;100958.41;;;20.88;37.04
5753;BME280;2901;42.140;24.760;2022-10-17T12:01:52;100951.44;;;21.20;36.60
5753;BME280;2901;42.140;24.760;2022-10-17T12:07:29;100951.84;;;21.04;36.96
5753;BME280;2901;42.140;24.760;2022-10-17T12:12:42;100939.59;;;21.01;36.26
5753;BME280;2901;42.140;24.760;2022-10-17T12:17:54;100951.56;;;21.16;37.09
5753;BME280;2901;42.140;24.760;2022-10-17T12:22:50;100947.41;;;21.40;36.44
5753;BME280;2901;42.140;24.760;2022-10-17T12:25:20;100942.66;;;21.20;36.35
5753;BME280;2901;42.140;24.760;2022-10-17T12:27:47;100938.97;;;21.27;36.36
5753;BME280;2901;42.140;24.760;2022-10-17T12:33:15;100939.56;;;21.03;37.27
5753;BME280;2901;42.140;24.760;2022-10-17T12:38:36;100940.03;;;21.20;36.67
5753;BME280;2901;42.140;24.760;2022-10-17T12:41:03;100935.84;;;21.11;35.76
5753;BME280;2901;42.140;24.760;2022-10-17T12:45:58;100937.59;;;21.12;36.49
5753;BME280;2901;42.140;24.760;2022-10-17T12:51:11;100932.75;;;21.28;36.69
5753;BME280;2901;42.140;24.760;2022-10-17T12:56:38;100934.38;;;21.34;36.32
5753;BME280;2901;42.140;24.760;2022-10-17T12:59:27;100933.28;;;21.41;36.51
5753;BME280;2901;42.140;24.760;2022-10-17T13:01:56;100936.75;;;21.43;36.69
5753;BME280;2901;42.140;24.760;2022-10-17T13:04:23;100935.81;;;21.45;37.02
5753;BME280;2901;42.140;24.760;2022-10-17T13:06:54;100939.56;;;21.37;37.41
5753;BME280;2901;42.140;24.760;2022-10-17T13:09:34;100938.63;;;21.39;37.20
5753;BME280;2901;42.140;24.760;2022-10-17T13:12:04;100947.13;;;21.49;36.65
5753;BME280;2901;42.140;24.760;2022-10-17T13:14:32;100942.81;;;21.46;37.17
5753;BME280;2901;42.140;24.760;2022-10-17T13:17:05;100945.38;;;21.49;36.67
5753;BME280;2901;42.140;24.760;2022-10-17T13:19:42;100942.91;;;21.43;36.56
5753;BME280;2901;42.140;24.760;2022-10-17T13:22:26;100951.69;;;21.44;36.67
5753;BME280;2901;42.140;24.760;2022-10-17T13:25:08;100951.63;;;21.45;36.97
5753;BME280;2901;42.140;24.760;2022-10-17T13:27:36;100943.91;;;21.38;37.04
5753;BME280;2901;42.140;24.760;2022-10-17T13:30:21;100944.34;;;21.23;36.88
5753;BME280;2901;42.140;24.760;2022-10-17T13:32:47;100944.88;;;21.01;37.66
5753;BME280;2901;42.140;24.760;2022-10-17T13:35:15;100935.44;;;20.93;37.61
5753;BME280;2901;42.140;24.760;2022-10-17T13:37:45;100935.38;;;20.96;37.45
5753;BME280;2901;42.140;24.760;2022-10-17T13:40:16;100938.91;;;20.95;37.59
5753;BME280;2901;42.140;24.760;2022-10-17T13:42:42;100937.72;;;21.06;37.79
5753;BME280;2901;42.140;24.760;2022-10-17T13:45:28;100940.31;;;21.08;37.70
5753;BME280;2901;42.140;24.760;2022-10-17T13:47:55;100940.22;;;21.12;38.45
5753;BME280;2901;42.140;24.760;2022-10-17T13:50:40;100941.19;;;21.10;38.49
5753;BME280;2901;42.140;24.760;2022-10-17T13:55:53;100939.25;;;21.16;38.99
5753;BME280;2901;42.140;24.760;2022-10-17T13:58:19;100933.00;;;21.20;38.48
5753;BME280;2901;42.140;24.760;2022-10-17T14:00:45;100933.03;;;21.19;38.60
5753;BME280;2901;42.140;24.760;2022-10-17T14:03:11;100932.06;;;21.21;38.76
5753;BME280;2901;42.140;24.760;2022-10-17T14:08:30;100928.09;;;21.05;39.39
5753;BME280;2901;42.140;24.760;2022-10-17T14:10:56;100927.13;;;21.09;39.43
5753;BME280;2901;42.140;24.760;2022-10-17T14:13:23;100932.41;;;21.08;39.68
5753;BME280;2901;42.140;24.760;2022-10-17T14:15:54;100926.31;;;21.06;40.15
5753;BME280;2901;42.140;24.760;2022-10-17T14:18:24;100924.63;;;21.03;40.34
5753;BME280;2901;42.140;24.760;2022-10-17T14:20:51;100930.88;;;21.01;39.87
5753;BME280;2901;42.140;24.760;2022-10-17T14:23:34;100931.00;;;20.95;39.72
5753;BME280;2901;42.140;24.760;2022-10-17T14:26:10;100933.53;;;20.98;40.64
5753;BME280;2901;42.140;24.760;2022-10-17T14:28:37;100932.34;;;20.77;39.84
5753;BME280;2901;42.140;24.760;2022-10-17T14:31:20;100936.66;;;20.81;40.74
5753;BME280;2901;42.140;24.760;2022-10-17T14:33:47;100941.22;;;20.73;39.87
5753;BME280;2901;42.140;24.760;2022-10-17T14:36:14;100934.56;;;20.58;40.83
5753;BME280;2901;42.140;24.760;2022-10-17T14:38:45;100943.31;;;20.59;41.11
5753;BME280;2901;42.140;24.760;2022-10-17T14:41:24;100939.97;;;20.52;41.88
5753;BME280;2901;42.140;24.760;2022-10-17T14:44:21;100946.91;;;20.56;43.17
5753;BME280;2901;42.140;24.760;2022-10-17T14:46:51;100947.34;;;20.38;42.52
5753;BME280;2901;42.140;24.760;2022-10-17T14:49:38;100945.91;;;20.22;42.83
5753;BME280;2901;42.140;24.760;2022-10-17T14:52:10;100940.91;;;20.11;43.02
5753;BME280;2901;42.140;24.760;2022-10-17T14:54:36;100950.59;;;20.09;43.55
5753;BME280;2901;42.140;24.760;2022-10-17T14:57:13;100952.34;;;20.09;44.36
5753;BME280;2901;42.140;24.760;2022-10-17T14:59:39;100955.84;;;20.11;45.86
5753;BME280;2901;42.140;24.760;2022-10-17T15:02:04;100954.13;;;20.08;45.61
5753;BME280;2901;42.140;24.760;2022-10-17T15:04:29;100961.22;;;20.05;45.14